createdAt,value
2022-07-28T00:00:29.782Z,1003.35
2022-07-28T00:01:29.806Z,1003.35
2022-07-28T00:02:30.035Z,1003.35
2022-07-28T00:03:29.853Z,1003.34
2022-07-28T00:04:29.734Z,1003.37
2022-07-28T00:05:29.735Z,1003.38
2022-07-28T00:06:29.702Z,1003.39
2022-07-28T00:07:29.758Z,1003.40
2022-07-28T00:08:29.682Z,1003.41
2022-07-28T00:09:29.685Z,1003.41
2022-07-28T00:10:29.653Z,1003.41
2022-07-28T00:11:29.655Z,1003.39
2022-07-28T00:12:29.654Z,1003.38
2022-07-28T00:13:29.618Z,1003.38
2022-07-28T00:14:29.601Z,1003.40
2022-07-28T00:15:29.594Z,1003.38
2022-07-28T00:16:29.629Z,1003.43
2022-07-28T00:17:29.594Z,1003.43
2022-07-28T00:18:29.553Z,1003.39
2022-07-28T00:19:29.534Z,1003.41
2022-07-28T00:20:29.546Z,1003.44
2022-07-28T00:21:29.503Z,1003.40
2022-07-28T00:22:29.505Z,1003.45
2022-07-28T00:23:39.542Z,1003.46
2022-07-28T00:24:30.464Z,1003.47
2022-07-28T00:25:29.457Z,1003.48
2022-07-28T00:26:29.444Z,1003.47
2022-07-28T00:27:29.445Z,1003.47
2022-07-28T00:28:29.413Z,1003.47
2022-07-28T00:29:49.211Z,1003.44
2022-07-28T00:30:30.385Z,1003.42
2022-07-28T00:31:29.404Z,1003.45
2022-07-28T00:32:29.385Z,1003.43
2022-07-28T00:33:29.356Z,1003.47
2022-07-28T00:34:29.338Z,1003.41
2022-07-28T00:35:31.180Z,1003.43
2022-07-28T00:36:29.326Z,1003.41
2022-07-28T00:37:29.318Z,1003.39
2022-07-28T00:38:29.284Z,1003.39
2022-07-28T00:39:29.265Z,1003.38
2022-07-28T00:40:29.255Z,1003.36
2022-07-28T00:41:29.276Z,1003.33
2022-07-28T00:42:29.246Z,1003.35
2022-07-28T00:43:29.216Z,1003.33
2022-07-28T00:44:29.198Z,1003.32
2022-07-28T00:45:29.187Z,1003.32
2022-07-28T00:46:29.252Z,1003.33
2022-07-28T00:47:33.424Z,1003.29
2022-07-28T00:48:30.137Z,1003.31
2022-07-28T00:49:29.137Z,1003.35
2022-07-28T00:50:29.116Z,1003.33
2022-07-28T00:51:29.107Z,1003.27
2022-07-28T00:52:29.132Z,1003.31
2022-07-28T00:53:29.078Z,1003.30
2022-07-28T00:54:29.077Z,1003.27
2022-07-28T00:55:29.058Z,1003.29
2022-07-28T00:56:29.037Z,1003.30
2022-07-28T00:57:29.038Z,1003.29
2022-07-28T00:58:29.008Z,1003.27
2022-07-28T00:59:28.999Z,1003.24
2022-07-28T01:00:28.982Z,1003.24
2022-07-28T01:01:29.000Z,1003.21
2022-07-28T01:02:29.160Z,1003.23
2022-07-28T01:03:28.946Z,1003.23
2022-07-28T01:04:28.932Z,1003.19
2022-07-28T01:05:44.215Z,1003.23
2022-07-28T01:06:29.928Z,1003.23
2022-07-28T01:07:28.909Z,1003.21
2022-07-28T01:08:28.877Z,1003.24
2022-07-28T01:09:28.868Z,1003.21
2022-07-28T01:10:28.838Z,1003.21
2022-07-28T01:11:28.838Z,1003.20
2022-07-28T01:12:28.839Z,1003.17
2022-07-28T01:13:30.172Z,1003.17
2022-07-28T01:14:28.831Z,1003.14
2022-07-28T01:15:28.787Z,1003.15
2022-07-28T01:16:28.844Z,1003.16
2022-07-28T01:17:28.758Z,1003.19
2022-07-28T01:18:28.750Z,1003.17
2022-07-28T01:19:28.722Z,1003.21
2022-07-28T01:20:28.709Z,1003.22
2022-07-28T01:21:28.701Z,1003.20
2022-07-28T01:22:28.689Z,1003.23
2022-07-28T01:23:28.702Z,1003.23
2022-07-28T01:24:28.654Z,1003.27
2022-07-28T01:25:28.639Z,1003.25
2022-07-28T01:26:28.631Z,1003.22
2022-07-28T01:27:28.621Z,1003.26
2022-07-28T01:28:28.610Z,1003.23
2022-07-28T01:29:28.599Z,1003.22
2022-07-28T01:30:28.570Z,1003.20
2022-07-28T01:31:28.637Z,1003.19
2022-07-28T01:32:28.539Z,1003.17
2022-07-28T01:33:28.550Z,1003.16
2022-07-28T01:34:28.549Z,1003.17
2022-07-28T01:35:28.508Z,1003.14
2022-07-28T01:36:28.495Z,1003.12
2022-07-28T01:37:28.491Z,1003.10
2022-07-28T01:38:28.490Z,1003.11
2022-07-28T01:39:28.452Z,1003.12
2022-07-28T01:40:28.434Z,1003.12
2022-07-28T01:41:28.432Z,1003.11
2022-07-28T01:42:28.421Z,1003.08
2022-07-28T01:43:28.430Z,1003.08
2022-07-28T01:44:28.390Z,1003.07
2022-07-28T01:45:28.369Z,1003.08
2022-07-28T01:46:28.414Z,1003.05
2022-07-28T01:47:28.340Z,1003.06
2022-07-28T01:48:28.351Z,1003.07
2022-07-28T01:49:28.321Z,1003.07
2022-07-28T01:50:28.298Z,1003.07
2022-07-28T01:51:28.289Z,1003.07
2022-07-28T01:52:28.279Z,1003.05
2022-07-28T01:53:28.290Z,1003.05
2022-07-28T01:54:28.254Z,1003.04
2022-07-28T01:55:28.230Z,1003.04
2022-07-28T01:56:28.220Z,1003.04
2022-07-28T01:57:28.257Z,1002.99
2022-07-28T01:58:28.209Z,1003.01
2022-07-28T01:59:28.186Z,1002.99
2022-07-28T02:00:28.181Z,1002.97
2022-07-28T02:01:28.218Z,1002.99
2022-07-28T02:02:28.149Z,1002.97
2022-07-28T02:03:28.151Z,1002.99
2022-07-28T02:04:28.114Z,1002.96
2022-07-28T02:05:28.144Z,1002.97
2022-07-28T02:06:28.088Z,1002.97
2022-07-28T02:07:28.070Z,1002.93
2022-07-28T02:08:28.081Z,1002.94
2022-07-28T02:09:28.051Z,1002.92
2022-07-28T02:10:28.028Z,1002.90
2022-07-28T02:11:28.041Z,1002.88
2022-07-28T02:12:28.002Z,1002.86
2022-07-28T02:13:28.021Z,1002.86
2022-07-28T02:14:28.022Z,1002.87
2022-07-28T02:15:28.015Z,1002.86
2022-07-28T02:16:27.968Z,1002.87
2022-07-28T02:17:27.930Z,1002.90
2022-07-28T02:18:27.923Z,1002.88
2022-07-28T02:19:27.934Z,1002.87
2022-07-28T02:20:27.900Z,1002.90
2022-07-28T02:21:27.897Z,1002.88
2022-07-28T02:22:27.872Z,1002.87
2022-07-28T02:23:27.853Z,1002.90
2022-07-28T02:24:27.879Z,1002.86
2022-07-28T02:25:27.841Z,1002.84
2022-07-28T02:26:27.812Z,1002.76
2022-07-28T02:27:28.083Z,1002.79
2022-07-28T02:28:27.812Z,1002.79
2022-07-28T02:29:49.876Z,1002.78
2022-07-28T02:30:28.762Z,1002.74
2022-07-28T02:31:27.884Z,1002.75
2022-07-28T02:32:28.580Z,1002.74
2022-07-28T02:33:58.038Z,1002.74
2022-07-28T02:34:28.722Z,1002.77
2022-07-28T02:35:27.932Z,1002.77
2022-07-28T02:36:27.892Z,1002.79
2022-07-28T02:37:27.702Z,1002.77
2022-07-28T02:38:27.652Z,1002.74
2022-07-28T02:39:27.663Z,1002.74
2022-07-28T02:40:27.623Z,1002.74
2022-07-28T02:41:27.613Z,1002.72
2022-07-28T02:42:27.628Z,1002.68
2022-07-28T02:43:49.039Z,1002.68
2022-07-28T02:44:28.593Z,1002.66
2022-07-28T02:45:27.560Z,1002.62
2022-07-28T02:46:27.614Z,1002.61
2022-07-28T02:47:27.532Z,1002.62
2022-07-28T02:48:27.510Z,1002.61
2022-07-28T02:49:27.565Z,1002.61
2022-07-28T02:50:27.489Z,1002.64
2022-07-28T02:51:27.484Z,1002.64
2022-07-28T02:52:27.454Z,1002.64
2022-07-28T02:53:27.454Z,1002.62
2022-07-28T02:54:27.451Z,1002.61
2022-07-28T02:55:27.423Z,1002.61
2022-07-28T02:56:27.412Z,1002.62
2022-07-28T02:57:27.394Z,1002.61
2022-07-28T02:58:27.375Z,1002.59
2022-07-28T02:59:27.392Z,1002.56
2022-07-28T03:00:27.356Z,1002.55
2022-07-28T03:01:27.400Z,1002.55
2022-07-28T03:02:27.314Z,1002.57
2022-07-28T03:03:27.315Z,1002.55
2022-07-28T03:04:27.315Z,1002.53
2022-07-28T03:05:27.426Z,1002.55
2022-07-28T03:06:28.993Z,1002.56
2022-07-28T03:07:27.272Z,1002.55
2022-07-28T03:08:27.246Z,1002.57
2022-07-28T03:09:27.244Z,1002.55
2022-07-28T03:10:34.179Z,1002.57
2022-07-28T03:11:28.209Z,1002.59
2022-07-28T03:12:27.190Z,1002.57
2022-07-28T03:13:27.186Z,1002.62
2022-07-28T03:14:27.170Z,1002.57
2022-07-28T03:15:27.173Z,1002.59
2022-07-28T03:16:27.253Z,1002.58
2022-07-28T03:17:27.132Z,1002.58
2022-07-28T03:18:27.106Z,1002.58
2022-07-28T03:19:27.115Z,1002.59
2022-07-28T03:20:27.078Z,1002.57
2022-07-28T03:21:27.077Z,1002.60
2022-07-28T03:22:27.065Z,1002.62
2022-07-28T03:23:27.044Z,1002.63
2022-07-28T03:24:27.046Z,1002.60
2022-07-28T03:25:27.015Z,1002.60
2022-07-28T03:26:26.995Z,1002.60
2022-07-28T03:27:26.995Z,1002.62
2022-07-28T03:28:26.976Z,1002.61
2022-07-28T03:29:26.987Z,1002.61
2022-07-28T03:30:27.007Z,1002.58
2022-07-28T03:31:26.946Z,1002.57
2022-07-28T03:32:26.916Z,1002.56
2022-07-28T03:33:26.915Z,1002.58
2022-07-28T03:34:26.916Z,1002.56
2022-07-28T03:35:26.888Z,1002.57
2022-07-28T03:36:26.867Z,1002.55
2022-07-28T03:37:26.846Z,1002.54
2022-07-28T03:38:26.837Z,1002.53
2022-07-28T03:39:26.836Z,1002.53
2022-07-28T03:40:27.833Z,1002.52
2022-07-28T03:41:26.826Z,1002.54
2022-07-28T03:42:26.776Z,1002.52
2022-07-28T03:43:27.226Z,1002.51
2022-07-28T03:44:27.858Z,1002.56
2022-07-28T03:45:26.746Z,1002.59
2022-07-28T03:46:26.777Z,1002.50
2022-07-28T03:47:26.707Z,1002.55
2022-07-28T03:48:26.697Z,1002.59
2022-07-28T03:49:26.706Z,1002.58
2022-07-28T03:50:26.666Z,1002.60
2022-07-28T03:51:26.672Z,1002.56
2022-07-28T03:52:26.665Z,1002.60
2022-07-28T03:53:26.637Z,1002.57
2022-07-28T03:54:26.637Z,1002.61
2022-07-28T03:55:26.608Z,1002.59
2022-07-28T03:56:26.588Z,1002.60
2022-07-28T03:57:26.607Z,1002.61
2022-07-28T03:58:28.691Z,1002.61
2022-07-28T03:59:26.599Z,1002.61
2022-07-28T04:00:26.545Z,1002.58
2022-07-28T04:01:26.600Z,1002.58
2022-07-28T04:02:26.550Z,1002.57
2022-07-28T04:03:37.681Z,1002.59
2022-07-28T04:04:27.510Z,1002.59
2022-07-28T04:05:26.479Z,1002.59
2022-07-28T04:06:26.458Z,1002.58
2022-07-28T04:07:26.449Z,1002.56
2022-07-28T04:08:26.427Z,1002.59
2022-07-28T04:09:26.420Z,1002.57
2022-07-28T04:10:26.427Z,1002.57
2022-07-28T04:11:26.387Z,1002.57
2022-07-28T04:12:26.392Z,1002.58
2022-07-28T04:13:26.359Z,1002.59
2022-07-28T04:14:26.351Z,1002.58
2022-07-28T04:15:26.349Z,1002.59
2022-07-28T04:16:26.377Z,1002.62
2022-07-28T04:17:26.308Z,1002.60
2022-07-28T04:18:26.298Z,1002.65
2022-07-28T04:19:26.293Z,1002.64
2022-07-28T04:20:26.291Z,1002.58
2022-07-28T04:21:26.271Z,1002.59
2022-07-28T04:22:26.241Z,1002.59
2022-07-28T04:23:26.223Z,1002.54
2022-07-28T04:24:26.221Z,1002.55
2022-07-28T04:25:26.229Z,1002.54
2022-07-28T04:26:26.188Z,1002.54
2022-07-28T04:27:26.169Z,1002.54
2022-07-28T04:28:26.169Z,1002.59
2022-07-28T04:29:27.597Z,1002.57
2022-07-28T04:30:26.196Z,1002.62
2022-07-28T04:31:26.190Z,1002.58
2022-07-28T04:32:26.108Z,1002.61
2022-07-28T04:33:26.086Z,1002.55
2022-07-28T04:34:26.081Z,1002.58
2022-07-28T04:35:26.088Z,1002.59
2022-07-28T04:36:26.050Z,1002.58
2022-07-28T04:37:26.039Z,1002.57
2022-07-28T04:38:27.029Z,1002.59
2022-07-28T04:39:26.018Z,1002.58
2022-07-28T04:40:26.021Z,1002.61
2022-07-28T04:41:25.990Z,1002.59
2022-07-28T04:42:25.971Z,1002.57
2022-07-28T04:43:25.959Z,1002.58
2022-07-28T04:44:25.951Z,1002.60
2022-07-28T04:45:25.951Z,1002.60
2022-07-28T04:46:26.088Z,1002.58
2022-07-28T04:47:25.913Z,1002.53
2022-07-28T04:48:25.902Z,1002.50
2022-07-28T04:49:25.878Z,1002.48
2022-07-28T04:50:25.923Z,1002.50
2022-07-28T04:51:25.860Z,1002.50
2022-07-28T04:52:25.845Z,1002.55
2022-07-28T04:53:25.830Z,1002.48
2022-07-28T04:54:26.799Z,1002.50
2022-07-28T04:55:25.830Z,1002.52
2022-07-28T04:56:25.791Z,1002.50
2022-07-28T04:57:25.771Z,1002.51
2022-07-28T04:58:25.754Z,1002.50
2022-07-28T04:59:25.760Z,1002.51
2022-07-28T05:00:25.743Z,1002.50
2022-07-28T05:01:25.784Z,1002.53
2022-07-28T05:02:25.727Z,1002.55
2022-07-28T05:03:25.693Z,1002.56
2022-07-28T05:04:25.740Z,1002.56
2022-07-28T05:05:25.661Z,1002.52
2022-07-28T05:06:25.673Z,1002.51
2022-07-28T05:07:25.647Z,1002.52
2022-07-28T05:08:26.599Z,1002.51
2022-07-28T05:09:25.616Z,1002.50
2022-07-28T05:10:25.633Z,1002.53
2022-07-28T05:11:25.581Z,1002.56
2022-07-28T05:12:25.578Z,1002.53
2022-07-28T05:13:30.350Z,1002.58
2022-07-28T05:14:26.572Z,1002.52
2022-07-28T05:15:25.532Z,1002.55
2022-07-28T05:16:25.574Z,1002.56
2022-07-28T05:17:25.507Z,1002.55
2022-07-28T05:18:25.492Z,1002.58
2022-07-28T05:19:25.714Z,1002.54
2022-07-28T05:20:25.453Z,1002.48
2022-07-28T05:21:25.460Z,1002.45
2022-07-28T05:22:25.436Z,1002.47
2022-07-28T05:23:25.421Z,1002.51
2022-07-28T05:24:25.402Z,1002.48
2022-07-28T05:25:25.441Z,1002.44
2022-07-28T05:26:25.392Z,1002.50
2022-07-28T05:27:25.384Z,1002.49
2022-07-28T05:28:25.342Z,1002.45
2022-07-28T05:29:25.351Z,1002.47
2022-07-28T05:30:26.331Z,1002.50
2022-07-28T05:31:25.388Z,1002.47
2022-07-28T05:32:25.366Z,1002.49
2022-07-28T05:33:29.006Z,1002.52
2022-07-28T05:34:26.262Z,1002.50
2022-07-28T05:35:25.254Z,1002.54
2022-07-28T05:36:25.254Z,1002.55
2022-07-28T05:37:25.221Z,1002.57
2022-07-28T05:38:25.231Z,1002.54
2022-07-28T05:39:25.525Z,1002.53
2022-07-28T05:40:25.204Z,1002.52
2022-07-28T05:41:25.931Z,1002.54
2022-07-28T05:42:25.513Z,1002.55
2022-07-28T05:43:25.263Z,1002.60
2022-07-28T05:44:25.145Z,1002.55
2022-07-28T05:45:25.168Z,1002.52
2022-07-28T05:46:25.256Z,1002.47
2022-07-28T05:47:25.165Z,1002.47
2022-07-28T05:48:25.124Z,1002.51
2022-07-28T05:49:25.170Z,1002.49
2022-07-28T05:50:25.149Z,1002.51
2022-07-28T05:51:25.062Z,1002.48
2022-07-28T05:52:25.100Z,1002.50
2022-07-28T05:53:25.060Z,1002.46
2022-07-28T05:54:25.005Z,1002.46
2022-07-28T05:55:25.240Z,1002.47
2022-07-28T05:56:25.044Z,1002.46
2022-07-28T05:57:24.993Z,1002.45
2022-07-28T05:58:24.966Z,1002.48
2022-07-28T05:59:25.176Z,1002.52
2022-07-28T06:00:24.925Z,1002.53
2022-07-28T06:01:25.065Z,1002.51
2022-07-28T06:02:25.049Z,1002.47
2022-07-28T06:03:24.884Z,1002.43
2022-07-28T06:04:27.077Z,1002.43
2022-07-28T06:05:25.019Z,1002.43
2022-07-28T06:06:24.857Z,1002.45
2022-07-28T06:07:43.597Z,1002.44
2022-07-28T06:08:25.797Z,1002.47
2022-07-28T06:09:24.794Z,1002.46
2022-07-28T06:10:24.794Z,1002.48
2022-07-28T06:11:24.795Z,1002.44
2022-07-28T06:12:24.755Z,1002.47
2022-07-28T06:13:24.752Z,1002.45
2022-07-28T06:14:24.738Z,1002.47
2022-07-28T06:15:25.029Z,1002.46
2022-07-28T06:16:24.784Z,1002.44
2022-07-28T06:17:24.696Z,1002.46
2022-07-28T06:18:24.687Z,1002.45
2022-07-28T06:19:24.666Z,1002.42
2022-07-28T06:20:24.656Z,1002.46
2022-07-28T06:21:24.697Z,1002.44
2022-07-28T06:22:24.638Z,1002.44
2022-07-28T06:23:24.629Z,1002.47
2022-07-28T06:24:24.604Z,1002.46
2022-07-28T06:25:24.649Z,1002.44
2022-07-28T06:26:24.607Z,1002.45
2022-07-28T06:27:24.558Z,1002.41
2022-07-28T06:28:24.546Z,1002.41
2022-07-28T06:29:24.536Z,1002.39
2022-07-28T06:30:24.506Z,1002.36
2022-07-28T06:31:24.579Z,1002.40
2022-07-28T06:32:24.518Z,1002.43
2022-07-28T06:33:24.502Z,1002.42
2022-07-28T06:34:24.477Z,1002.45
2022-07-28T06:35:24.467Z,1002.46
2022-07-28T06:36:24.447Z,1002.46
2022-07-28T06:37:24.438Z,1002.43
2022-07-28T06:38:24.418Z,1002.45
2022-07-28T06:39:24.399Z,1002.43
2022-07-28T06:40:24.381Z,1002.35
2022-07-28T06:41:24.370Z,1002.36
2022-07-28T06:42:24.368Z,1002.36
2022-07-28T06:43:24.340Z,1002.41
2022-07-28T06:44:37.500Z,1002.40
2022-07-28T06:45:25.340Z,1002.43
2022-07-28T06:46:24.341Z,1002.38
2022-07-28T06:47:24.310Z,1002.37
2022-07-28T06:48:28.773Z,1002.35
2022-07-28T06:49:25.287Z,1002.38
2022-07-28T06:50:26.118Z,1002.40
2022-07-28T06:51:24.248Z,1002.39
2022-07-28T06:52:24.238Z,1002.37
2022-07-28T06:53:24.198Z,1002.40
2022-07-28T06:54:24.188Z,1002.37
2022-07-28T06:55:24.181Z,1002.36
2022-07-28T06:56:24.159Z,1002.34
2022-07-28T06:57:24.160Z,1002.34
2022-07-28T06:58:25.137Z,1002.31
2022-07-28T06:59:24.118Z,1002.34
2022-07-28T07:00:24.089Z,1002.36
2022-07-28T07:01:24.145Z,1002.37
2022-07-28T07:02:28.051Z,1002.38
2022-07-28T07:03:24.059Z,1002.39
2022-07-28T07:04:24.087Z,1002.38
2022-07-28T07:05:24.050Z,1002.39
2022-07-28T07:06:24.060Z,1002.41
2022-07-28T07:07:24.022Z,1002.39
2022-07-28T07:08:24.011Z,1002.40
2022-07-28T07:09:23.990Z,1002.41
2022-07-28T07:10:23.982Z,1002.39
2022-07-28T07:11:23.971Z,1002.39
2022-07-28T07:12:23.971Z,1002.39
2022-07-28T07:13:23.948Z,1002.33
2022-07-28T07:14:23.932Z,1002.39
2022-07-28T07:15:23.924Z,1002.36
2022-07-28T07:16:23.950Z,1002.37
2022-07-28T07:17:23.913Z,1002.33
2022-07-28T07:18:23.892Z,1002.33
2022-07-28T07:19:23.869Z,1002.30
2022-07-28T07:20:23.862Z,1002.27
2022-07-28T07:21:23.842Z,1002.28
2022-07-28T07:22:23.844Z,1002.24
2022-07-28T07:23:23.833Z,1002.21
2022-07-28T07:24:23.791Z,1002.25
2022-07-28T07:25:23.782Z,1002.23
2022-07-28T07:26:23.772Z,1002.25
2022-07-28T07:27:23.791Z,1002.25
2022-07-28T07:28:23.743Z,1002.23
2022-07-28T07:29:23.733Z,1002.30
2022-07-28T07:30:23.713Z,1002.28
2022-07-28T07:31:23.752Z,1002.24
2022-07-28T07:32:23.703Z,1002.22
2022-07-28T07:33:23.681Z,1002.23
2022-07-28T07:34:23.737Z,1002.24
2022-07-28T07:35:23.704Z,1002.22
2022-07-28T07:36:23.643Z,1002.17
2022-07-28T07:37:23.652Z,1002.20
2022-07-28T07:38:28.851Z,1002.16
2022-07-28T07:39:24.595Z,1002.11
2022-07-28T07:40:23.656Z,1002.08
2022-07-28T07:41:23.574Z,1002.07
2022-07-28T07:42:24.841Z,1002.02
2022-07-28T07:43:23.693Z,1002.02
2022-07-28T07:44:23.585Z,1002.03
2022-07-28T07:45:23.574Z,1002.00
2022-07-28T07:46:23.578Z,1001.98
2022-07-28T07:47:23.511Z,1002.01
2022-07-28T07:48:23.484Z,1001.99
2022-07-28T07:49:45.333Z,1001.98
2022-07-28T07:50:24.453Z,1002.00
2022-07-28T07:51:23.432Z,1002.01
2022-07-28T07:52:23.443Z,1001.99
2022-07-28T07:53:23.411Z,1002.00
2022-07-28T07:54:23.398Z,1001.99
2022-07-28T07:55:23.375Z,1002.03
2022-07-28T07:56:23.382Z,1002.02
2022-07-28T07:57:23.367Z,1002.00
2022-07-28T07:58:23.343Z,1002.00
2022-07-28T07:59:23.325Z,1001.98
2022-07-28T08:00:28.780Z,1001.96
2022-07-28T08:01:24.429Z,1001.94
2022-07-28T08:02:23.306Z,1001.93
2022-07-28T08:03:23.286Z,1001.88
2022-07-28T08:04:25.314Z,1001.90
2022-07-28T08:05:35.594Z,1001.92
2022-07-28T08:06:26.208Z,1001.92
2022-07-28T08:07:23.227Z,1001.93
2022-07-28T08:08:23.224Z,1001.93
2022-07-28T08:09:23.204Z,1001.92
2022-07-28T08:10:23.193Z,1001.90
2022-07-28T08:11:23.165Z,1001.90
2022-07-28T08:12:24.668Z,1001.87
2022-07-28T08:13:23.155Z,1001.89
2022-07-28T08:14:23.128Z,1001.87
2022-07-28T08:15:23.108Z,1001.88
2022-07-28T08:16:23.213Z,1001.86
2022-07-28T08:17:25.934Z,1001.85
2022-07-28T08:18:23.095Z,1001.85
2022-07-28T08:19:23.056Z,1001.84
2022-07-28T08:20:23.040Z,1001.82
2022-07-28T08:21:23.027Z,1001.89
2022-07-28T08:22:23.018Z,1001.85
2022-07-28T08:23:26.306Z,1001.84
2022-07-28T08:24:32.630Z,1001.85
2022-07-28T08:25:23.977Z,1001.86
2022-07-28T08:26:22.958Z,1001.85
2022-07-28T08:27:22.940Z,1001.88
2022-07-28T08:28:22.948Z,1001.85
2022-07-28T08:29:22.918Z,1001.86
2022-07-28T08:30:25.235Z,1001.89
2022-07-28T08:31:22.986Z,1001.89
2022-07-28T08:32:22.887Z,1001.86
2022-07-28T08:33:22.878Z,1001.81
2022-07-28T08:34:32.453Z,1001.80
2022-07-28T08:35:39.288Z,1001.82
2022-07-28T08:36:23.818Z,1001.82
2022-07-28T08:37:22.817Z,1001.87
2022-07-28T08:38:22.810Z,1001.83
2022-07-28T08:39:22.783Z,1001.85
2022-07-28T08:40:27.377Z,1001.87
2022-07-28T08:41:22.788Z,1001.86
2022-07-28T08:42:22.739Z,1001.85
2022-07-28T08:43:22.750Z,1001.84
2022-07-28T08:44:22.710Z,1001.82
2022-07-28T08:45:22.707Z,1001.84
2022-07-28T08:46:22.739Z,1001.81
2022-07-28T08:47:22.670Z,1001.82
2022-07-28T08:48:22.678Z,1001.84
2022-07-28T08:49:22.669Z,1001.87
2022-07-28T08:50:22.633Z,1001.87
2022-07-28T08:51:22.653Z,1001.87
2022-07-28T08:52:22.598Z,1001.87
2022-07-28T08:53:22.613Z,1001.86
2022-07-28T08:54:22.580Z,1001.85
2022-07-28T08:55:22.561Z,1001.82
2022-07-28T08:56:22.592Z,1001.79
2022-07-28T08:57:22.554Z,1001.79
2022-07-28T08:58:22.572Z,1001.75
2022-07-28T08:59:22.517Z,1001.73
2022-07-28T09:00:22.493Z,1001.74
2022-07-28T09:01:22.534Z,1001.68
2022-07-28T09:02:22.696Z,1001.68
2022-07-28T09:03:22.543Z,1001.71
2022-07-28T09:04:22.462Z,1001.68
2022-07-28T09:05:22.432Z,1001.70
2022-07-28T09:06:22.423Z,1001.67
2022-07-28T09:07:22.412Z,1001.66
2022-07-28T09:08:22.388Z,1001.66
2022-07-28T09:09:22.394Z,1001.60
2022-07-28T09:10:22.352Z,1001.64
2022-07-28T09:11:22.341Z,1001.64
2022-07-28T09:12:22.330Z,1001.67
2022-07-28T09:13:23.313Z,1001.71
2022-07-28T09:14:22.325Z,1001.65
2022-07-28T09:15:22.297Z,1001.63
2022-07-28T09:16:22.316Z,1001.56
2022-07-28T09:17:22.274Z,1001.56
2022-07-28T09:18:22.246Z,1001.56
2022-07-28T09:19:22.254Z,1001.58
2022-07-28T09:20:22.224Z,1001.58
2022-07-28T09:21:22.213Z,1001.65
2022-07-28T09:22:22.184Z,1001.65
2022-07-28T09:23:42.105Z,1001.59
2022-07-28T09:24:23.175Z,1001.57
2022-07-28T09:25:22.181Z,1001.58
2022-07-28T09:26:22.135Z,1001.58
2022-07-28T09:27:22.133Z,1001.58
2022-07-28T09:28:22.105Z,1001.58
2022-07-28T09:29:22.123Z,1001.58
2022-07-28T09:30:22.085Z,1001.53
2022-07-28T09:31:22.179Z,1001.57
2022-07-28T09:32:22.056Z,1001.57
2022-07-28T09:33:41.801Z,1001.55
2022-07-28T09:34:23.046Z,1001.49
2022-07-28T09:35:22.026Z,1001.47
2022-07-28T09:36:21.995Z,1001.47
2022-07-28T09:37:26.794Z,1001.42
2022-07-28T09:38:22.976Z,1001.36
2022-07-28T09:39:22.012Z,1001.38
2022-07-28T09:40:22.536Z,1001.41
2022-07-28T09:41:21.970Z,1001.41
2022-07-28T09:42:21.990Z,1001.44
2022-07-28T09:43:21.918Z,1001.38
2022-07-28T09:44:21.928Z,1001.37
2022-07-28T09:45:23.832Z,1001.40
2022-07-28T09:46:22.041Z,1001.42
2022-07-28T09:47:22.150Z,1001.38
2022-07-28T09:48:22.042Z,1001.41
2022-07-28T09:49:25.211Z,1001.40
2022-07-28T09:50:22.816Z,1001.37
2022-07-28T09:51:21.797Z,1001.34
2022-07-28T09:52:21.788Z,1001.34
2022-07-28T09:53:21.798Z,1001.34
2022-07-28T09:54:21.784Z,1001.34
2022-07-28T09:55:21.739Z,1001.35
2022-07-28T09:56:21.728Z,1001.32
2022-07-28T09:57:21.718Z,1001.32
2022-07-28T09:58:21.730Z,1001.28
2022-07-28T09:59:21.727Z,1001.29
2022-07-28T10:00:21.677Z,1001.29
2022-07-28T10:01:21.707Z,1001.25
2022-07-28T10:02:21.847Z,1001.17
2022-07-28T10:03:21.682Z,1001.20
2022-07-28T10:04:21.640Z,1001.21
2022-07-28T10:05:21.619Z,1001.21
2022-07-28T10:06:21.598Z,1001.18
2022-07-28T10:07:21.590Z,1001.17
2022-07-28T10:08:21.573Z,1001.21
2022-07-28T10:09:21.582Z,1001.23
2022-07-28T10:10:21.547Z,1001.23
2022-07-28T10:11:21.530Z,1001.26
2022-07-28T10:12:21.531Z,1001.22
2022-07-28T10:13:21.512Z,1001.20
2022-07-28T10:14:21.540Z,1001.20
2022-07-28T10:15:21.481Z,1001.21
2022-07-28T10:16:22.504Z,1001.21
2022-07-28T10:17:21.451Z,1001.20
2022-07-28T10:18:21.438Z,1001.18
2022-07-28T10:19:21.442Z,1001.15
2022-07-28T10:20:21.411Z,1001.10
2022-07-28T10:21:21.471Z,1001.08
2022-07-28T10:22:21.391Z,1001.09
2022-07-28T10:23:21.374Z,1001.11
2022-07-28T10:24:21.385Z,1001.04
2022-07-28T10:25:21.355Z,1001.06
2022-07-28T10:26:21.353Z,1000.99
2022-07-28T10:27:21.322Z,1000.94
2022-07-28T10:28:21.303Z,1000.93
2022-07-28T10:29:21.311Z,1000.94
2022-07-28T10:30:21.271Z,1000.89
2022-07-28T10:31:21.332Z,1000.90
2022-07-28T10:32:21.244Z,1000.88
2022-07-28T10:33:21.245Z,1000.85
2022-07-28T10:34:24.631Z,1000.88
2022-07-28T10:35:21.214Z,1000.89
2022-07-28T10:36:21.202Z,1000.84
2022-07-28T10:37:21.194Z,1000.93
2022-07-28T10:38:21.165Z,1000.85
2022-07-28T10:39:21.186Z,1000.82
2022-07-28T10:40:21.137Z,1000.87
2022-07-28T10:41:21.133Z,1000.81
2022-07-28T10:42:21.113Z,1000.80
2022-07-28T10:43:21.106Z,1000.77
2022-07-28T10:44:21.105Z,1000.72
2022-07-28T10:45:21.096Z,1000.77
2022-07-28T10:46:21.106Z,1000.80
2022-07-28T10:47:21.168Z,1000.81
2022-07-28T10:48:21.028Z,1000.82
2022-07-28T10:49:21.194Z,1000.80
2022-07-28T10:50:21.005Z,1000.78
2022-07-28T10:51:21.008Z,1000.80
2022-07-28T10:52:45.805Z,1000.76
2022-07-28T10:53:21.964Z,1000.77
2022-07-28T10:54:25.170Z,1000.74
2022-07-28T10:55:20.936Z,1000.82
2022-07-28T10:56:20.915Z,1000.77
2022-07-28T10:57:20.934Z,1000.85
2022-07-28T10:58:25.075Z,1000.81
2022-07-28T10:59:20.887Z,1000.81
2022-07-28T11:00:26.415Z,1000.85
2022-07-28T11:01:46.463Z,1000.89
2022-07-28T11:02:21.939Z,1000.82
2022-07-28T11:03:21.000Z,1000.81
2022-07-28T11:04:20.820Z,1000.72
2022-07-28T11:05:20.828Z,1000.73
2022-07-28T11:06:20.798Z,1000.73
2022-07-28T11:07:20.780Z,1000.73
2022-07-28T11:08:20.768Z,1000.68
2022-07-28T11:09:20.750Z,1000.74
2022-07-28T11:10:20.756Z,1000.73
2022-07-28T11:11:20.734Z,1000.73
2022-07-28T11:12:20.707Z,1000.71
2022-07-28T11:13:21.700Z,1000.73
2022-07-28T11:14:20.711Z,1000.67
2022-07-28T11:15:20.689Z,1000.66
2022-07-28T11:16:20.730Z,1000.64
2022-07-28T11:17:24.301Z,1000.64
2022-07-28T11:18:21.627Z,1000.60
2022-07-28T11:19:40.093Z,1000.63
2022-07-28T11:20:29.934Z,1000.65
2022-07-28T11:21:21.590Z,1000.67
2022-07-28T11:22:20.577Z,1000.68
2022-07-28T11:23:20.570Z,1000.64
2022-07-28T11:24:21.551Z,1000.61
2022-07-28T11:25:22.570Z,1000.60
2022-07-28T11:26:20.531Z,1000.59
2022-07-28T11:27:20.520Z,1000.56
2022-07-28T11:28:20.500Z,1000.55
2022-07-28T11:29:20.490Z,1000.55
2022-07-28T11:30:20.555Z,1000.53
2022-07-28T11:31:20.513Z,1000.52
2022-07-28T11:32:20.449Z,1000.47
2022-07-28T11:33:21.431Z,1000.45
2022-07-28T11:34:20.421Z,1000.50
2022-07-28T11:35:20.415Z,1000.47
2022-07-28T11:36:20.382Z,1000.43
2022-07-28T11:37:20.372Z,1000.40
2022-07-28T11:38:20.361Z,1000.47
2022-07-28T11:39:20.349Z,1000.44
2022-07-28T11:40:20.342Z,1000.45
2022-07-28T11:41:20.333Z,1000.42
2022-07-28T11:42:20.322Z,1000.37
2022-07-28T11:43:22.316Z,1000.36
2022-07-28T11:44:20.274Z,1000.37
2022-07-28T11:45:20.286Z,1000.40
2022-07-28T11:46:20.260Z,1000.37
2022-07-28T11:47:20.243Z,1000.33
2022-07-28T11:48:20.224Z,1000.32
2022-07-28T11:49:20.263Z,1000.37
2022-07-28T11:50:20.239Z,1000.36
2022-07-28T11:51:20.197Z,1000.31
2022-07-28T11:52:20.194Z,1000.29
2022-07-28T11:53:20.164Z,1000.31
2022-07-28T11:54:20.147Z,1000.30
2022-07-28T11:55:20.140Z,1000.28
2022-07-28T11:56:21.136Z,1000.35
2022-07-28T11:57:20.105Z,1000.31
2022-07-28T11:58:20.099Z,1000.31
2022-07-28T11:59:20.094Z,1000.29
2022-07-28T12:00:20.075Z,1000.33
2022-07-28T12:01:20.178Z,1000.35
2022-07-28T12:02:20.108Z,1000.33
2022-07-28T12:03:20.032Z,1000.32
2022-07-28T12:04:20.307Z,1000.30
2022-07-28T12:05:20.007Z,1000.26